Terminal Aerodrome Forecast
Issued by NWS Mobile, AL

Home | Current Version | Previous Version | Text Only | Print | Product List | Glossary On
Versions: 1 2 3 4 5 6 7 8 9 10 11 12 13 14
000
FTUS44 KMOB 311700
TAFMOB
TAF
KMOB 311737Z 3118/0118 26008G16KT P6SM FEW030
     FM312100 32013G20KT P6SM SCT030
     FM010300 34016G25KT P6SM SCT030=

USA.gov is the U.S. government's official web portal to all federal, state and local government web resources and services.